Time;durP1;ratioP1;P1;durP2;ratioP2;P2;SDS_P1;SDS_P2;PMS_P1;PMS_P2;Temp;Humidity;BMP_temperature;BMP_pressure;BME280_temperature;BME280_humidity;BME280_pressure;Samples;Min_cycle;Max_cycle;Signal;HPM_P1;HPM_P2
2021/03/20 00:01:05;;;;;;;7.30;4.90;;;;;;;5.87;69.61;101053.31;5075458;28;20037;-61
2021/03/20 00:03:30;;;;;;;7.43;5.22;;;;;;;5.87;69.51;101051.63;5074513;28;20517;-62
2021/03/20 00:05:56;;;;;;;6.15;4.70;;;;;;;5.87;69.28;101049.06;5073644;28;20067;-61
2021/03/20 00:08:23;;;;;;;5.45;4.53;;;;;;;5.85;69.50;101045.53;5074833;28;20081;-62
2021/03/20 00:10:49;;;;;;;7.15;4.95;;;;;;;5.86;69.41;101047.28;5074752;28;20064;-61
2021/03/20 00:13:18;;;;;;;6.43;4.53;;;;;;;5.87;69.90;101049.06;5073419;28;20040;-61
2021/03/20 00:15:44;;;;;;;9.23;4.68;;;;;;;5.87;69.82;101037.88;5074604;28;20039;-62
2021/03/20 00:18:16;;;;;;;7.05;5.03;;;;;;;5.86;69.46;101047.28;5074562;28;20480;-63
2021/03/20 00:20:44;;;;;;;7.00;4.55;;;;;;;5.84;70.05;101048.91;5074341;28;20136;-62
2021/03/20 00:23:10;;;;;;;9.02;5.35;;;;;;;5.85;69.96;101054.91;5073232;28;20035;-63
2021/03/20 00:25:36;;;;;;;6.05;4.43;;;;;;;5.86;69.08;101051.53;5072700;28;20532;-63
2021/03/20 00:28:11;;;;;;;6.25;5.00;;;;;;;5.83;69.50;101053.97;5073006;28;20036;-61
2021/03/20 00:30:37;;;;;;;6.78;5.07;;;;;;;5.84;69.64;101053.16;5073575;28;20130;-62
2021/03/20 00:33:03;;;;;;;6.25;4.63;;;;;;;5.84;70.01;101051.47;5072873;28;20476;-62
2021/03/20 00:35:31;;;;;;;6.50;4.82;;;;;;;5.84;69.82;101056.63;5074327;28;20097;-63
2021/03/20 00:37:59;;;;;;;6.28;4.78;;;;;;;5.84;69.51;101064.34;5072598;28;20041;-62
2021/03/20 00:40:29;;;;;;;5.50;4.35;;;;;;;5.84;69.99;101059.19;5074113;28;20116;-61
2021/03/20 00:42:57;;;;;;;6.32;5.10;;;;;;;5.85;69.67;101062.63;5074510;28;20048;-61
2021/03/20 00:45:25;;;;;;;7.28;4.85;;;;;;;5.84;69.54;101061.75;5072488;28;20036;-62
2021/03/20 00:47:51;;;;;;;5.22;4.53;;;;;;;5.84;69.43;101061.75;5073982;28;20048;-61
2021/03/20 00:50:19;;;;;;;7.28;4.00;;;;;;;5.83;70.01;101064.25;5073886;28;20034;-63
2021/03/20 00:52:47;;;;;;;5.75;5.07;;;;;;;5.83;69.86;101062.56;5073687;28;20040;-61
2021/03/20 00:55:18;;;;;;;5.72;4.80;;;;;;;5.83;69.84;101065.13;5073663;28;20075;-62
2021/03/20 00:57:43;;;;;;;5.85;4.97;;;;;;;5.82;69.95;101054.78;5073584;28;20037;-62
2021/03/20 01:00:15;;;;;;;7.63;5.35;;;;;;;5.82;69.36;101054.78;5072739;28;20508;-61
2021/03/20 01:02:47;;;;;;;9.15;5.88;;;;;;;5.83;69.96;101056.53;5073633;28;20041;-62
2021/03/20 01:05:16;;;;;;;7.65;4.68;;;;;;;5.81;69.54;101056.44;5073725;28;20064;-61
2021/03/20 01:07:42;;;;;;;5.85;4.80;;;;;;;5.82;70.02;101058.22;5073592;28;20036;-61
2021/03/20 01:10:12;;;;;;;6.20;5.25;;;;;;;5.82;69.94;101067.63;5073435;28;20046;-62
2021/03/20 01:12:37;;;;;;;7.97;4.72;;;;;;;5.82;69.44;101065.06;5073642;28;20036;-61
2021/03/20 01:15:05;;;;;;;6.90;4.97;;;;;;;5.82;69.53;101070.22;5073451;28;20436;-62
2021/03/20 01:17:31;;;;;;;7.60;4.90;;;;;;;5.81;69.61;101069.31;5071860;28;20476;-62
2021/03/20 01:19:56;;;;;;;6.07;4.95;;;;;;;5.80;69.97;101067.53;5073255;28;20116;-62
2021/03/20 01:22:22;;;;;;;5.93;4.68;;;;;;;5.80;69.65;101067.53;5073742;28;20044;-62
2021/03/20 01:24:47;;;;;;;8.40;5.30;;;;;;;5.78;69.94;101072.63;5073500;28;20436;-62
2021/03/20 01:27:12;;;;;;;8.18;5.90;;;;;;;5.79;69.78;101071.81;5073105;28;20115;-63
2021/03/20 01:29:38;;;;;;;5.97;5.30;;;;;;;5.79;69.73;101079.53;5072161;28;20036;-62
2021/03/20 01:32:07;;;;;;;8.10;5.60;;;;;;;5.79;70.42;101076.97;5073771;28;20040;-62
2021/03/20 01:34:32;;;;;;;6.25;4.68;;;;;;;5.79;70.10;101076.97;5073228;28;20075;-61
2021/03/20 01:36:58;;;;;;;5.53;4.80;;;;;;;5.79;70.16;101083.78;5073277;28;20076;-62
2021/03/20 01:39:28;;;;;;;6.45;4.55;;;;;;;5.79;70.38;101082.09;5072916;28;20031;-62
2021/03/20 01:41:54;;;;;;;6.47;4.82;;;;;;;5.79;70.17;101076.06;5073422;28;20043;-62
2021/03/20 01:44:22;;;;;;;8.00;6.07;;;;;;;5.78;69.95;101080.34;5073176;28;20032;-62
2021/03/20 01:46:55;;;;;;;5.30;4.78;;;;;;;5.76;69.75;101076.78;5073675;28;20047;-62
2021/03/20 01:49:20;;;;;;;6.72;5.03;;;;;;;5.77;70.57;101069.94;5073020;28;20036;-62
2021/03/20 01:51:55;;;;;;;6.68;5.03;;;;;;;5.75;70.20;101075.03;5072279;28;20029;-61
2021/03/20 01:54:25;;;;;;;8.95;5.78;;;;;;;5.75;70.09;101080.16;5073611;28;20060;-61
2021/03/20 01:56:51;;;;;;;9.90;6.18;;;;;;;5.75;70.02;101069.00;5073188;28;20105;-62
2021/03/20 01:59:17;;;;;;;5.75;4.53;;;;;;;5.75;69.88;101071.59;5071436;28;20075;-61
2021/03/20 02:01:45;;;;;;;7.80;5.18;;;;;;;5.74;70.48;101078.41;5072727;28;20502;-62
2021/03/20 02:04:14;;;;;;;6.57;5.03;;;;;;;5.75;69.99;101069.00;5072790;28;20080;-61
2021/03/20 02:06:42;;;;;;;5.28;4.28;;;;;;;5.74;69.84;101080.09;5071790;28;20035;-62
2021/03/20 02:09:10;;;;;;;5.90;5.18;;;;;;;5.73;69.78;101076.63;5071862;28;20119;-62
2021/03/20 02:11:53;;;;;;;6.97;4.90;;;;;;;5.71;69.55;101080.81;5073054;28;20110;-63
2021/03/20 02:14:42;;;;;;;6.63;4.95;;;;;;;5.70;70.03;101081.59;5072948;28;20119;-63
2021/03/20 02:17:22;;;;;;;6.35;5.10;;;;;;;5.69;69.99;101074.69;5073139;28;20489;-63
2021/03/20 02:20:25;;;;;;;7.38;4.97;;;;;;;5.70;69.55;101076.47;5071778;28;20572;-63
2021/03/20 02:23:12;;;;;;;9.40;5.45;;;;;;;5.70;70.22;101071.31;5072877;28;20033;-61
2021/03/20 02:26:03;;;;;;;5.85;5.03;;;;;;;5.69;70.28;101068.69;5073295;28;20096;-62
2021/03/20 02:29:05;;;;;;;6.47;4.80;;;;;;;5.69;70.41;101068.69;5072834;28;20485;-61
2021/03/20 02:31:43;;;;;;;7.65;5.78;;;;;;;5.68;70.46;101066.91;5073129;28;20389;-62
2021/03/20 02:34:13;;;;;;;8.18;5.35;;;;;;;5.68;70.13;101069.47;5072892;28;20036;-61
2021/03/20 02:37:14;;;;;;;6.75;4.93;;;;;;;5.67;70.33;101072.84;5071459;28;20037;-61
2021/03/20 02:40:02;;;;;;;9.05;5.18;;;;;;;5.66;69.71;101064.28;5070333;28;20049;-61
2021/03/20 02:42:44;;;;;;;6.82;4.55;;;;;;;5.67;70.06;101062.56;5072544;28;20455;-61
2021/03/20 02:45:14;;;;;;;8.15;5.78;;;;;;;5.66;70.32;101069.41;5072948;28;20036;-62
2021/03/20 02:48:00;;;;;;;11.77;5.97;;;;;;;5.65;70.45;101062.50;5076273;28;20043;-61
2021/03/20 02:50:53;;;;;;;6.97;5.47;;;;;;;5.64;70.35;101066.75;5074243;28;20072;-63
2021/03/20 02:53:31;;;;;;;7.82;5.32;;;;;;;5.65;70.04;101059.94;5065864;28;20041;-63
2021/03/20 02:56:00;;;;;;;6.95;5.18;;;;;;;5.65;70.61;101065.06;5074550;28;20037;-63
2021/03/20 02:58:35;;;;;;;8.88;5.70;;;;;;;5.66;70.03;101068.50;5075463;28;20071;-63
2021/03/20 03:01:08;;;;;;;7.63;5.38;;;;;;;5.64;70.54;101061.59;5076273;28;20044;-63
2021/03/20 03:03:37;;;;;;;7.63;5.63;;;;;;;5.65;70.44;101059.94;5076091;28;20036;-62
2021/03/20 03:06:03;;;;;;;7.22;5.65;;;;;;;5.65;69.99;101065.06;5074838;28;20040;-62
2021/03/20 03:08:36;;;;;;;7.28;5.32;;;;;;;5.63;70.01;101069.25;5074561;28;20038;-62
2021/03/20 03:11:14;;;;;;;9.20;5.35;;;;;;;5.64;70.43;101068.44;5074704;28;20071;-62
2021/03/20 03:13:49;;;;;;;7.30;5.88;;;;;;;5.63;70.30;101077.84;5076280;28;20145;-61
2021/03/20 03:16:38;;;;;;;8.70;6.18;;;;;;;5.62;70.54;101073.50;5075299;28;20451;-61
2021/03/20 03:19:09;;;;;;;6.28;4.97;;;;;;;5.64;70.33;101071.03;5057737;28;20035;-63
2021/03/20 03:21:43;;;;;;;6.63;5.13;;;;;;;5.62;69.98;101072.63;5075992;28;20033;-61
2021/03/20 03:24:13;;;;;;;8.68;5.20;;;;;;;5.61;70.18;101078.56;5057496;28;20481;-62
2021/03/20 03:26:46;;;;;;;6.68;5.93;;;;;;;5.62;70.42;101070.06;5075666;28;20056;-62
2021/03/20 03:29:15;;;;;;;8.05;6.53;;;;;;;5.62;70.37;101077.75;5075465;28;20068;-61
2021/03/20 03:32:15;;;;;;;10.10;7.07;;;;;;;5.61;70.39;101073.44;5074298;28;20123;-62
2021/03/20 03:34:59;;;;;;;9.30;6.93;;;;;;;5.60;70.58;101074.22;5075224;28;20410;-63
2021/03/20 03:37:42;;;;;;;6.88;5.65;;;;;;;5.59;70.26;101073.34;5075639;28;20048;-62
2021/03/20 03:40:19;;;;;;;7.75;5.90;;;;;;;5.58;70.04;101066.44;5074847;28;20028;-62
2021/03/20 03:42:49;;;;;;;9.75;6.32;;;;;;;5.58;70.30;101075.81;5075706;28;20040;-61
2021/03/20 03:45:16;;;;;;;7.13;5.40;;;;;;;5.60;70.28;101079.38;5074001;28;20059;-62
2021/03/20 03:47:43;;;;;;;8.15;6.85;;;;;;;5.59;70.56;101072.47;5075113;28;20040;-63
2021/03/20 03:50:19;;;;;;;6.97;5.13;;;;;;;5.57;70.65;101071.47;5075107;28;20074;-62
2021/03/20 03:52:44;;;;;;;6.55;5.85;;;;;;;5.58;70.83;101073.25;5075109;28;20043;-61
2021/03/20 03:55:17;;;;;;;7.18;6.43;;;;;;;5.58;70.37;101075.81;5075170;28;20489;-63
2021/03/20 03:57:55;;;;;;;8.30;6.07;;;;;;;5.56;70.94;101080.91;5073592;28;20032;-62
2021/03/20 04:00:32;;;;;;;9.32;6.68;;;;;;;5.57;70.63;101081.78;5073983;28;20032;-62
2021/03/20 04:03:09;;;;;;;7.00;5.85;;;;;;;5.56;70.71;101077.44;5074916;28;20417;-61
2021/03/20 04:06:11;;;;;;;7.72;6.93;;;;;;;5.55;70.96;101091.09;5074907;28;20039;-62
2021/03/20 04:08:48;;;;;;;8.20;6.63;;;;;;;5.55;70.08;101091.09;5075072;28;20135;-63
2021/03/20 04:11:20;;;;;;;9.27;6.47;;;;;;;5.54;70.91;101086.75;5073591;28;20036;-63
2021/03/20 04:14:00;;;;;;;8.55;6.28;;;;;;;5.54;70.36;101095.38;5074392;28;20041;-63
2021/03/20 04:16:37;;;;;;;7.68;6.32;;;;;;;5.54;70.24;101086.75;5074444;28;20102;-62
2021/03/20 04:19:20;;;;;;;11.00;7.30;;;;;;;5.53;70.78;101093.59;5073477;28;20040;-62
2021/03/20 04:21:57;;;;;;;8.90;6.93;;;;;;;5.53;70.00;101098.72;5074621;28;20503;-62
2021/03/20 04:24:33;;;;;;;7.20;6.38;;;;;;;5.52;70.42;101096.97;5074231;28;20500;-63
2021/03/20 04:27:10;;;;;;;11.18;6.45;;;;;;;5.52;70.61;101099.53;5074761;28;20123;-62
2021/03/20 04:29:44;;;;;;;8.55;6.72;;;;;;;5.51;70.24;101100.34;5074903;28;20094;-62
2021/03/20 04:32:11;;;;;;;;;;;;;;;5.51;70.41;101099.47;5073705;28;20037;-61
2021/03/20 04:34:57;;;;;;;7.03;6.28;;;;;;;5.49;70.41;101102.84;5073199;28;19965;-63
2021/03/20 04:37:26;;;;;;;8.60;6.65;;;;;;;5.49;70.41;101107.97;5073466;28;20044;-61
2021/03/20 04:39:55;;;;;;;7.40;6.35;;;;;;;5.49;70.78;101107.06;5072752;28;20024;-62
2021/03/20 04:42:28;;;;;;;8.85;6.75;;;;;;;5.50;70.24;101108.84;5072846;28;20045;-61
2021/03/20 04:44:54;;;;;;;10.57;7.38;;;;;;;5.50;70.37;101101.13;5072854;28;20082;-63
2021/03/20 04:47:27;;;;;;;10.30;7.50;;;;;;;5.48;70.96;101100.16;5072543;28;20071;-62
2021/03/20 04:50:06;;;;;;;8.13;7.32;;;;;;;5.47;70.52;101096.72;5073045;28;20104;-62
2021/03/20 04:52:38;;;;;;;8.63;7.00;;;;;;;5.48;70.47;101089.88;5072597;28;20551;-61
2021/03/20 04:55:07;;;;;;;8.68;7.28;;;;;;;5.48;70.94;101100.16;5074184;28;20100;-63
2021/03/20 04:57:40;;;;;;;9.65;7.40;;;;;;;5.47;70.98;101095.81;5073781;28;20040;-61
2021/03/20 05:00:05;;;;;;;9.73;7.70;;;;;;;5.47;71.15;101101.88;5073138;28;20497;-62
2021/03/20 05:02:35;;;;;;;10.57;7.82;;;;;;;5.47;70.94;101103.53;5072236;28;20083;-61
2021/03/20 05:05:23;;;;;;;10.77;6.85;;;;;;;5.46;70.83;101104.34;5074056;28;20033;-61
2021/03/20 05:07:48;;;;;;;9.70;8.05;;;;;;;5.46;70.71;101117.19;5072999;28;20039;-62
2021/03/20 05:10:27;;;;;;;9.82;7.55;;;;;;;5.46;70.94;101119.75;5071931;28;20041;-61
2021/03/20 05:12:55;;;;;;;9.43;8.45;;;;;;;5.46;70.62;101120.66;5073897;28;20032;-62
2021/03/20 05:15:28;;;;;;;9.18;7.10;;;;;;;5.44;70.67;101119.69;5072436;28;20040;-63
2021/03/20 05:17:57;;;;;;;9.40;7.33;;;;;;;5.44;70.67;101113.69;5072505;28;20028;-62
2021/03/20 05:20:24;;;;;;;7.93;7.07;;;;;;;5.43;70.56;101119.63;5072334;28;20278;-62
2021/03/20 05:22:53;;;;;;;8.75;7.28;;;;;;;5.44;70.99;101121.41;5073530;28;20119;-63
2021/03/20 05:25:25;;;;;;;9.10;7.00;;;;;;;5.44;71.40;101122.25;5073461;28;20128;-63
2021/03/20 05:27:52;;;;;;;8.98;7.95;;;;;;;5.44;70.81;101123.97;5073942;28;20037;-62
2021/03/20 05:30:22;;;;;;;8.90;7.40;;;;;;;5.43;70.59;101120.50;5073229;28;20105;-62
2021/03/20 05:32:47;;;;;;;9.13;7.63;;;;;;;5.42;70.61;101118.72;5055255;28;20044;-62
2021/03/20 05:35:26;;;;;;;12.90;9.07;;;;;;;5.41;70.64;101124.66;5072275;28;20036;-62
2021/03/20 05:37:52;;;;;;;9.13;8.00;;;;;;;5.42;71.02;101123.00;5073420;28;20444;-61
2021/03/20 05:40:28;;;;;;;10.43;8.40;;;;;;;5.40;70.73;101130.59;5073489;28;20128;-61
2021/03/20 05:43:15;;;;;;;9.40;7.97;;;;;;;5.39;71.07;101120.25;5073363;28;20040;-62
2021/03/20 05:45:54;;;;;;;12.02;8.50;;;;;;;5.40;70.96;101128.03;5073020;28;20043;-63
2021/03/20 05:48:34;;;;;;;11.90;8.32;;;;;;;5.39;70.98;101121.13;5072128;28;20059;-61
2021/03/20 05:51:23;;;;;;;12.40;8.30;;;;;;;5.39;71.57;101121.13;5072356;28;20037;-61
2021/03/20 05:53:54;;;;;;;9.80;8.27;;;;;;;5.39;70.81;101121.13;5072037;28;20089;-61
2021/03/20 05:56:29;;;;;;;12.70;8.60;;;;;;;5.37;70.73;101115.03;5073718;28;20037;-61
2021/03/20 05:59:02;;;;;;;10.98;9.07;;;;;;;5.37;70.71;101117.63;5071652;28;20129;-62
2021/03/20 06:01:56;;;;;;;10.88;8.10;;;;;;;5.36;70.55;101120.97;5073307;28;20059;-61
2021/03/20 06:04:44;;;;;;;9.65;7.50;;;;;;;5.35;70.95;101124.34;5035641;28;20497;-61
2021/03/20 06:07:38;;;;;;;10.77;8.43;;;;;;;5.35;71.03;101119.22;5071990;28;20136;-61
2021/03/20 06:10:29;;;;;;;12.27;9.73;;;;;;;5.34;70.83;101131.16;5065570;28;20075;-61
2021/03/20 06:13:10;;;;;;;12.38;8.75;;;;;;;5.34;70.46;101132.88;5071804;28;20045;-61
2021/03/20 06:15:41;;;;;;;11.82;8.57;;;;;;;5.33;70.27;101129.38;5071902;28;20043;-62
2021/03/20 06:18:44;;;;;;;10.52;8.70;;;;;;;5.33;71.24;101134.53;5072650;28;20045;-63
2021/03/20 06:21:34;;;;;;;11.80;8.40;;;;;;;5.32;70.92;101127.63;5072922;28;20039;-63
2021/03/20 06:24:16;;;;;;;9.80;8.80;;;;;;;5.31;71.25;101135.25;5075811;28;20033;-62
2021/03/20 06:26:45;;;;;;;11.68;9.00;;;;;;;5.33;71.08;101143.94;5076771;28;20513;-61
2021/03/20 06:29:24;;;;;;;10.65;8.45;;;;;;;5.32;71.44;101143.03;5075026;28;20089;-61
2021/03/20 06:31:53;;;;;;;12.80;8.52;;;;;;;5.32;71.31;101143.03;5076890;28;20044;-61
2021/03/20 06:34:29;;;;;;;10.63;8.15;;;;;;;5.32;71.40;101147.31;5076355;28;20043;-62
2021/03/20 06:37:03;;;;;;;10.45;8.80;;;;;;;5.33;71.52;101159.38;5076755;28;20033;-63
2021/03/20 06:39:39;;;;;;;11.90;9.18;;;;;;;5.30;71.20;101160.06;5075177;28;20489;-62
2021/03/20 06:42:28;;;;;;;10.13;8.43;;;;;;;5.29;70.92;101158.31;5076402;28;20039;-62
2021/03/20 06:45:21;;;;;;;12.57;8.35;;;;;;;5.30;70.72;101167.78;5076994;28;20032;-62
2021/03/20 06:48:02;;;;;;;12.27;9.15;;;;;;;5.29;71.27;101180.56;5075684;28;20041;-62
2021/03/20 06:50:38;;;;;;;11.20;8.30;;;;;;;5.28;70.97;101178.78;5075752;28;20043;-62
2021/03/20 06:53:13;;;;;;;9.77;8.75;;;;;;;5.28;70.93;101176.22;5076983;28;20036;-62
2021/03/20 06:55:45;;;;;;;9.38;8.05;;;;;;;5.29;71.35;101178.00;5075243;28;20032;-62
2021/03/20 06:58:26;;;;;;;11.98;9.52;;;;;;;5.29;70.78;101175.41;5076042;28;20024;-61
2021/03/20 07:00:53;;;;;;;11.32;8.40;;;;;;;5.29;71.37;101183.13;5074651;28;20044;-62
2021/03/20 07:03:48;;;;;;;11.80;8.65;;;;;;;5.27;71.01;101193.34;5076043;28;20044;-62
2021/03/20 07:06:30;;;;;;;10.68;8.40;;;;;;;5.25;70.89;101200.06;5075119;28;20117;-63
2021/03/20 07:08:59;;;;;;;10.93;9.05;;;;;;;5.26;71.56;101199.28;5075588;28;20040;-62
2021/03/20 07:11:41;;;;;;;13.93;10.38;;;;;;;5.25;71.53;101204.31;5075775;28;20474;-62
2021/03/20 07:14:15;;;;;;;11.27;9.23;;;;;;;5.24;71.05;101208.59;5076194;28;20078;-61
2021/03/20 07:16:59;;;;;;;12.85;9.98;;;;;;;5.25;71.30;101206.88;5074281;28;20025;-64
2021/03/20 07:19:28;;;;;;;11.32;9.48;;;;;;;5.25;71.27;101207.78;5075898;28;20552;-61
2021/03/20 07:22:02;;;;;;;13.88;9.55;;;;;;;5.24;71.29;101218.88;5074437;28;20135;-61
2021/03/20 07:24:40;;;;;;;13.60;9.55;;;;;;;5.24;70.89;101220.53;5076082;28;20036;-61
2021/03/20 07:27:15;;;;;;;10.50;9.38;;;;;;;5.23;71.00;101222.22;5074368;28;20040;-62
2021/03/20 07:29:50;;;;;;;12.57;9.80;;;;;;;5.23;71.42;101221.34;5074489;28;20049;-62
2021/03/20 07:32:24;;;;;;;12.57;10.77;;;;;;;5.22;71.53;101220.47;5075762;28;20024;-62
2021/03/20 07:34:56;;;;;;;12.55;10.13;;;;;;;5.24;70.57;101223.09;5075649;28;20486;-61
2021/03/20 07:37:25;;;;;;;10.95;8.82;;;;;;;5.23;71.58;101232.50;5075364;28;20037;-62
2021/03/20 07:40:01;;;;;;;10.65;9.55;;;;;;;5.23;71.18;101236.75;5074118;28;20122;-61
2021/03/20 07:42:34;;;;;;;14.23;9.75;;;;;;;5.23;71.44;101234.19;5075216;28;20524;-62
2021/03/20 07:45:04;;;;;;;14.10;10.88;;;;;;;5.22;70.74;101240.13;5075593;28;20062;-63
2021/03/20 07:47:36;;;;;;;13.77;10.38;;;;;;;5.22;71.26;101230.75;5073717;28;20024;-63
2021/03/20 07:50:25;;;;;;;12.40;10.55;;;;;;;5.21;71.40;101239.25;5057465;28;20040;-63
2021/03/20 07:53:16;;;;;;;11.20;10.05;;;;;;;5.20;71.04;101241.75;5069322;28;20440;-61
2021/03/20 07:56:00;;;;;;;12.82;11.40;;;;;;;5.20;71.34;101236.59;5075151;28;20111;-62
2021/03/20 07:58:55;;;;;;;13.82;11.88;;;;;;;5.21;71.24;101233.25;5074954;28;20063;-61
2021/03/20 08:01:20;;;;;;;12.82;11.07;;;;;;;5.19;71.35;101238.28;5058597;28;20056;-63
2021/03/20 08:03:54;;;;;;;12.68;10.80;;;;;;;5.20;71.13;101236.59;5075146;28;20422;-62
2021/03/20 08:06:27;;;;;;;13.35;9.80;;;;;;;5.19;71.54;101240.84;5074533;28;20393;-62
2021/03/20 08:09:18;;;;;;;11.15;9.82;;;;;;;5.17;71.60;101235.63;5073307;28;20097;-62
2021/03/20 08:11:46;;;;;;;12.80;10.38;;;;;;;5.19;71.54;101245.97;5074634;28;20040;-61
2021/03/20 08:14:33;;;;;;;11.93;10.60;;;;;;;5.17;70.99;101243.34;5073420;28;20043;-62
2021/03/20 08:16:58;;;;;;;12.02;10.77;;;;;;;5.17;71.41;101247.56;5074259;28;20038;-62
2021/03/20 08:19:24;;;;;;;13.48;10.60;;;;;;;5.17;71.48;101243.34;5074425;28;20028;-62
2021/03/20 08:22:02;;;;;;;12.00;10.70;;;;;;;5.18;71.21;101239.97;5074079;28;20037;-62
2021/03/20 08:24:51;;;;;;;14.27;11.35;;;;;;;5.17;71.61;101240.78;5074474;28;20040;-62
2021/03/20 08:27:30;;;;;;;13.60;11.02;;;;;;;5.17;70.99;101239.88;5074463;28;20052;-60
2021/03/20 08:30:21;;;;;;;12.02;10.35;;;;;;;5.15;71.89;101239.78;5073288;28;20458;-63
2021/03/20 08:33:23;;;;;;;13.40;10.57;;;;;;;5.15;71.17;101247.50;5074400;28;20044;-62
2021/03/20 08:35:57;;;;;;;14.20;11.23;;;;;;;5.15;71.21;101247.50;5073906;28;20032;-63
2021/03/20 08:38:32;;;;;;;;;;;;;;;5.14;70.83;101248.28;5073753;28;20043;-63
2021/03/20 08:41:12;;;;;;;15.48;10.45;;;;;;;5.14;71.38;101255.09;5074254;28;19920;-60
2021/03/20 08:44:03;;;;;;;11.43;10.10;;;;;;;5.15;71.97;101254.31;5056210;28;20040;-62
2021/03/20 08:46:51;;;;;;;11.02;9.20;;;;;;;5.13;71.63;101249.09;5074248;28;20055;-61
2021/03/20 08:49:25;;;;;;;12.27;10.85;;;;;;;5.14;71.60;101253.44;5073918;28;20127;-61
2021/03/20 08:52:20;;;;;;;13.50;10.35;;;;;;;5.13;71.50;101246.53;5073952;28;20098;-62
2021/03/20 08:54:57;;;;;;;12.68;10.43;;;;;;;5.15;71.33;101246.59;5068307;28;20036;-62
2021/03/20 08:57:38;;;;;;;13.55;9.40;;;;;;;5.16;71.50;101253.50;5073940;28;20035;-61
2021/03/20 09:00:47;;;;;;;11.05;8.45;;;;;;;5.16;71.90;101250.94;5073646;28;20090;-61
2021/03/20 09:03:20;;;;;;;15.45;9.02;;;;;;;5.17;71.53;101253.63;5064504;28;20048;-61
2021/03/20 09:06:03;;;;;;;11.00;9.60;;;;;;;5.18;71.31;101257.97;5055595;28;20485;-61
2021/03/20 09:08:41;;;;;;;11.77;9.15;;;;;;;5.21;71.54;101253.81;5073972;28;20382;-63
2021/03/20 09:11:20;;;;;;;10.05;8.95;;;;;;;5.21;71.99;101251.22;5072741;28;20105;-61
2021/03/20 09:14:09;;;;;;;10.27;8.57;;;;;;;5.22;72.04;101253.88;5072545;28;20048;-62
2021/03/20 09:16:54;;;;;;;10.55;9.00;;;;;;;5.24;71.10;101259.09;5073311;28;20041;-61
2021/03/20 09:19:46;;;;;;;9.65;8.52;;;;;;;5.26;71.11;101253.25;5073724;28;20489;-63
2021/03/20 09:22:18;;;;;;;9.88;8.40;;;;;;;5.29;70.90;101253.44;5073148;28;20040;-61
2021/03/20 09:24:50;;;;;;;10.68;9.15;;;;;;;5.32;71.26;101257.88;5073638;28;20112;-63
2021/03/20 09:27:54;;;;;;;9.45;7.75;;;;;;;5.32;71.39;101258.72;5073536;28;20122;-62
2021/03/20 09:30:39;;;;;;;11.77;8.60;;;;;;;5.36;70.97;101251.19;5073479;28;20041;-63
2021/03/20 09:33:20;;;;;;;10.27;8.13;;;;;;;5.37;71.50;101247.84;5073380;28;20040;-61
2021/03/20 09:35:53;;;;;;;10.30;7.50;;;;;;;5.38;71.68;101247.91;5073035;28;20036;-61
2021/03/20 09:38:51;;;;;;;10.15;8.63;;;;;;;5.40;71.49;101253.16;5072192;28;20123;-61
2021/03/20 09:41:23;;;;;;;8.77;7.07;;;;;;;5.42;71.13;101251.56;5055524;28;20516;-61
2021/03/20 09:44:03;;;;;;;11.43;7.70;;;;;;;5.41;71.11;101260.94;5073268;28;20064;-61
2021/03/20 09:46:38;;;;;;;8.55;6.90;;;;;;;5.42;71.43;101259.28;5072345;28;20390;-62
2021/03/20 09:49:09;;;;;;;8.48;7.40;;;;;;;5.44;70.70;101266.25;5073275;28;20037;-61
2021/03/20 09:51:53;;;;;;;9.23;7.25;;;;;;;5.46;71.39;101269.81;5073272;28;20047;-62
2021/03/20 09:57:25;;;;;;;;;;;;;;;5.46;70.94;101267.25;5078253;28;20036;-61
2021/03/20 09:59:54;;;;;;;8.77;6.97;;;;;;;5.46;71.00;101268.91;5077146;28;19939;-61
2021/03/20 10:02:22;;;;;;;9.35;7.38;;;;;;;5.46;71.42;101258.63;5075872;28;20083;-61
2021/03/20 10:04:54;;;;;;;8.95;7.15;;;;;;;5.47;71.28;101258.72;5076626;28;20037;-61
2021/03/20 10:07:25;;;;;;;8.63;6.70;;;;;;;5.47;71.42;101260.41;5076096;28;20111;-61
2021/03/20 10:10:11;;;;;;;8.25;6.80;;;;;;;5.48;70.87;101265.66;5077362;28;20123;-61
2021/03/20 10:13:00;;;;;;;7.07;5.70;;;;;;;5.49;71.11;101266.50;5077184;28;20043;-61
2021/03/20 10:15:36;;;;;;;8.32;5.82;;;;;;;5.49;71.29;101262.28;5077245;28;20504;-61
2021/03/20 10:18:04;;;;;;;7.55;6.25;;;;;;;5.51;71.32;101269.19;5075788;28;20075;-62
2021/03/20 10:20:43;;;;;;;10.65;6.85;;;;;;;5.51;71.08;101272.63;5075754;28;20089;-61
2021/03/20 10:23:39;;;;;;;8.00;7.18;;;;;;;5.53;71.38;101267.59;5076651;28;20028;-62
2021/03/20 10:26:17;;;;;;;7.30;6.13;;;;;;;5.53;71.47;101267.59;5076757;28;20489;-62
2021/03/20 10:28:56;;;;;;;8.35;6.07;;;;;;;5.54;70.90;101269.34;5075235;28;20524;-63
2021/03/20 10:31:32;;;;;;;6.65;5.50;;;;;;;5.53;71.13;101263.31;5075273;28;20032;-61
2021/03/20 10:34:10;;;;;;;6.25;5.18;;;;;;;5.54;71.44;101274.47;5076435;28;20119;-61
2021/03/20 10:37:05;;;;;;;7.28;5.57;;;;;;;5.54;71.30;101272.81;5076859;28;20127;-61
2021/03/20 10:39:35;;;;;;;7.78;5.22;;;;;;;5.55;71.16;101271.09;5069173;28;20041;-61
2021/03/20 10:42:04;;;;;;;8.30;6.32;;;;;;;5.57;70.76;101252.41;5076458;28;20036;-62
2021/03/20 10:44:36;;;;;;;7.63;5.15;;;;;;;5.58;71.28;101264.47;5074941;28;20041;-62
2021/03/20 10:47:04;;;;;;;8.43;5.85;;;;;;;5.58;71.07;101261.91;5075574;28;20032;-62
2021/03/20 10:49:38;;;;;;;7.97;5.28;;;;;;;5.59;71.03;101262.78;5075770;28;20459;-62
2021/03/20 10:52:05;;;;;;;7.43;5.75;;;;;;;5.59;70.88;101266.25;5075919;28;20082;-61
2021/03/20 10:54:41;;;;;;;8.93;6.05;;;;;;;5.60;71.12;101254.25;5075857;28;20109;-62
2021/03/20 10:57:15;;;;;;;7.13;5.75;;;;;;;5.59;70.95;101248.25;5076193;28;20068;-61
2021/03/20 10:59:46;;;;;;;5.97;5.25;;;;;;;5.60;70.99;101246.53;5075992;28;20407;-62
2021/03/20 11:02:20;;;;;;;8.50;5.93;;;;;;;5.60;71.32;101243.97;5074302;28;20508;-62
2021/03/20 11:04:50;;;;;;;8.88;6.43;;;;;;;5.61;70.92;101243.19;5076316;28;20043;-61
2021/03/20 11:07:21;;;;;;;6.65;5.70;;;;;;;5.61;70.94;101245.75;5074119;28;20083;-61
2021/03/20 11:09:50;;;;;;;6.78;4.75;;;;;;;5.62;70.84;101247.50;5075949;28;20040;-61
2021/03/20 11:12:30;;;;;;;7.45;5.38;;;;;;;5.61;70.64;101243.19;5076134;28;20048;-62
2021/03/20 11:15:01;;;;;;;7.10;5.28;;;;;;;5.63;70.77;101239.00;5075840;28;20052;-62
2021/03/20 11:17:32;;;;;;;7.10;5.13;;;;;;;5.64;70.67;101228.78;5075899;28;20036;-62
2021/03/20 11:20:02;;;;;;;6.47;4.95;;;;;;;5.65;71.44;101239.97;5074434;28;20086;-62
2021/03/20 11:22:30;;;;;;;7.55;5.05;;;;;;;5.64;70.96;101235.63;5075598;28;20378;-62
2021/03/20 11:25:08;;;;;;;6.35;5.32;;;;;;;5.64;70.66;101240.78;5075777;28;20033;-62
2021/03/20 11:27:37;;;;;;;5.53;4.40;;;;;;;5.65;70.97;101242.56;5075661;28;20121;-62
2021/03/20 11:30:17;;;;;;;6.38;4.97;;;;;;;5.66;71.05;101233.13;5075588;28;20044;-61
2021/03/20 11:32:48;;;;;;;10.05;5.40;;;;;;;5.66;70.96;101228.00;5074084;28;20090;-62
2021/03/20 11:35:25;;;;;;;9.48;5.35;;;;;;;5.67;71.25;101227.19;5076040;28;20543;-62
2021/03/20 11:37:59;;;;;;;5.90;5.00;;;;;;;5.68;70.69;101223.81;5075535;28;20032;-61
2021/03/20 11:40:35;;;;;;;6.45;4.95;;;;;;;5.67;71.13;101220.38;5074428;28;20025;-62
2021/03/20 11:43:07;;;;;;;7.30;5.05;;;;;;;5.67;71.09;101220.38;5075365;28;20070;-62
2021/03/20 11:45:37;;;;;;;7.35;4.82;;;;;;;5.68;70.92;101210.97;5075853;28;20033;-62
2021/03/20 11:48:15;;;;;;;6.32;4.72;;;;;;;5.67;70.87;101212.66;5075302;28;20044;-62
2021/03/20 11:50:53;;;;;;;6.72;4.95;;;;;;;5.68;70.94;101210.97;5074193;28;20028;-62
2021/03/20 11:53:41;;;;;;;5.22;4.50;;;;;;;5.68;70.86;101206.72;5074114;28;20055;-62
2021/03/20 11:56:25;;;;;;;6.18;4.38;;;;;;;5.66;70.64;101203.16;5075241;28;20417;-62
2021/03/20 11:58:58;;;;;;;;;;;;;;;5.66;70.62;101198.03;5075467;28;20112;-61
2021/03/20 12:01:34;;;;;;;5.88;5.10;;;;;;;5.65;70.53;101198.81;5074870;28;19924;-62
2021/03/20 12:04:08;;;;;;;6.75;4.75;;;;;;;5.64;71.07;101190.19;5074757;28;20036;-61
2021/03/20 12:06:34;;;;;;;5.55;4.43;;;;;;;5.65;70.98;101196.25;5073662;28;20132;-61
2021/03/20 12:09:02;;;;;;;4.57;3.95;;;;;;;5.65;70.46;101185.97;5073591;28;20108;-63
2021/03/20 12:11:56;;;;;;;6.97;4.28;;;;;;;5.66;70.49;101192.88;5074742;28;20546;-62
2021/03/20 12:14:45;;;;;;;4.63;3.88;;;;;;;5.68;70.19;101187.81;5073876;28;20045;-61